Terminal Aerodrome Forecast
Issued by NWS

Current Version | Previous Version | Graphics & Text | Print | Product List | Glossary On
Versions: 1 2 3 4 5 6 7 8 9 10 11 12 13 14 15 16 17 18 19 20 21 22 23 24
000
FTUS41 KRNK 241514 AAB
TAFLWB
TAF AMD
KLWB 241514Z 2415/2512 12006KT P6SM OVC012
      TEMPO 2416/2418 5SM -SHRA OVC008
     FM242000 12007KT 4SM -SHRA OVC015
     FM250200 17004KT 5SM -SHRA OVC008
     FM250500 VRB03KT P6SM OVC003=

USA.gov is the U.S. government's official web portal to all federal, state and local government web resources and services.